createdAt,value
2022-09-02T00:00:01.195Z,99.90
2022-09-02T00:02:11.929Z,99.90
2022-09-02T00:04:23.059Z,99.90
2022-09-02T00:06:44.284Z,99.90
2022-09-02T00:09:10.102Z,99.90
2022-09-02T00:11:19.421Z,99.90
2022-09-02T00:13:27.384Z,99.90
2022-09-02T00:15:32.875Z,99.90
2022-09-02T00:17:45.859Z,99.90
2022-09-02T00:20:00.459Z,99.90
2022-09-02T00:22:06.693Z,99.90
2022-09-02T00:24:13.719Z,99.90
2022-09-02T00:26:20.666Z,99.90
2022-09-02T00:28:25.851Z,99.90
2022-09-02T00:30:31.882Z,99.90
2022-09-02T00:32:38.555Z,99.90
2022-09-02T00:34:43.613Z,99.90
2022-09-02T00:36:50.867Z,99.90
2022-09-02T00:38:58.198Z,99.90
2022-09-02T00:41:20.998Z,99.90
2022-09-02T00:44:03.826Z,99.90
2022-09-02T00:46:11.713Z,99.90
2022-09-02T00:48:16.831Z,99.90
2022-09-02T00:50:31.476Z,99.90
2022-09-02T00:52:40.329Z,99.90
2022-09-02T00:55:13.468Z,99.90
2022-09-02T00:57:21.315Z,99.90
2022-09-02T00:59:31.160Z,99.90
2022-09-02T01:01:39.184Z,99.90
2022-09-02T01:03:47.768Z,99.90
2022-09-02T01:05:53.765Z,99.90
2022-09-02T01:07:59.948Z,99.90
2022-09-02T01:10:26.889Z,99.90
2022-09-02T01:12:33.778Z,99.90
2022-09-02T01:14:40.413Z,99.90
2022-09-02T01:16:56.644Z,99.90
2022-09-02T01:19:08.986Z,99.90
2022-09-02T01:21:16.834Z,99.90
2022-09-02T01:23:26.318Z,99.90
2022-09-02T01:25:34.575Z,99.90
2022-09-02T01:27:40.067Z,99.90
2022-09-02T01:29:54.290Z,99.90
2022-09-02T01:31:59.519Z,99.90
2022-09-02T01:34:04.777Z,99.90
2022-09-02T01:36:14.313Z,99.90
2022-09-02T01:38:19.568Z,99.90
2022-09-02T01:40:25.417Z,99.90
2022-09-02T01:42:34.450Z,99.90
2022-09-02T01:44:45.516Z,99.90
2022-09-02T01:46:51.507Z,99.90
2022-09-02T01:49:00.401Z,99.90
2022-09-02T01:51:06.477Z,99.90
2022-09-02T01:53:11.251Z,99.90
2022-09-02T01:55:19.237Z,99.90
2022-09-02T01:57:27.316Z,99.90
2022-09-02T01:59:31.882Z,99.90
2022-09-02T02:01:37.376Z,99.90
2022-09-02T02:03:42.006Z,99.90
2022-09-02T02:05:46.741Z,99.90
2022-09-02T02:07:58.285Z,99.90
2022-09-02T02:10:05.672Z,99.90
2022-09-02T02:12:10.615Z,99.90
2022-09-02T02:14:16.831Z,99.90
2022-09-02T02:16:30.624Z,99.90
2022-09-02T02:18:38.953Z,99.90
2022-09-02T02:20:53.065Z,99.90
2022-09-02T02:22:59.722Z,99.90
2022-09-02T02:25:06.833Z,99.90
2022-09-02T02:27:15.000Z,99.90
2022-09-02T02:29:19.506Z,99.90
2022-09-02T02:31:28.066Z,99.90
2022-09-02T02:33:36.439Z,99.90
2022-09-02T02:35:42.720Z,99.90
2022-09-02T02:37:50.462Z,99.90
2022-09-02T02:39:59.344Z,99.90
2022-09-02T02:42:05.805Z,99.90
2022-09-02T02:44:12.077Z,99.90
2022-09-02T02:46:20.056Z,99.90
2022-09-02T02:48:25.455Z,99.90
2022-09-02T02:50:32.957Z,99.90
2022-09-02T02:52:40.422Z,99.90
2022-09-02T02:54:45.142Z,99.90
2022-09-02T02:56:50.798Z,99.90
2022-09-02T02:58:55.302Z,99.90
2022-09-02T03:01:01.991Z,99.90
2022-09-02T03:03:11.446Z,99.90
2022-09-02T03:05:16.679Z,99.90
2022-09-02T03:07:23.797Z,99.90
2022-09-02T03:09:30.185Z,99.90
2022-09-02T03:11:35.425Z,99.90
2022-09-02T03:13:40.208Z,99.90
2022-09-02T03:15:45.184Z,99.90
2022-09-02T03:17:52.005Z,99.80
2022-09-02T03:20:00.212Z,99.50
2022-09-02T03:22:12.334Z,99.60
2022-09-02T03:24:17.493Z,99.90
2022-09-02T03:26:24.507Z,99.80
2022-09-02T03:28:30.399Z,99.70
2022-09-02T03:30:40.531Z,99.90
2022-09-02T03:32:46.977Z,99.80
2022-09-02T03:34:54.164Z,99.90
2022-09-02T03:36:59.846Z,99.50
2022-09-02T03:39:12.811Z,99.10
2022-09-02T03:41:32.251Z,99.00
2022-09-02T03:43:39.090Z,99.00
2022-09-02T03:45:43.845Z,99.20
2022-09-02T03:47:55.303Z,99.50
2022-09-02T03:50:06.820Z,99.00
2022-09-02T03:52:11.856Z,98.60
2022-09-02T03:54:18.303Z,98.30
2022-09-02T03:56:25.674Z,98.10
2022-09-02T03:58:30.596Z,97.90
2022-09-02T04:00:39.877Z,98.00
2022-09-02T04:02:51.143Z,97.20
2022-09-02T04:04:57.131Z,97.30
2022-09-02T04:07:03.543Z,97.30
2022-09-02T04:09:10.454Z,97.20
2022-09-02T04:11:19.354Z,96.80
2022-09-02T04:13:29.387Z,96.90
2022-09-02T04:15:36.019Z,96.80
2022-09-02T04:17:41.636Z,96.00
2022-09-02T04:19:50.474Z,96.70
2022-09-02T04:21:57.359Z,97.20
2022-09-02T04:24:07.371Z,97.00
2022-09-02T04:26:15.299Z,97.20
2022-09-02T04:28:19.954Z,97.00
2022-09-02T04:30:26.528Z,97.00
2022-09-02T04:32:38.327Z,96.80
2022-09-02T04:34:47.035Z,96.20
2022-09-02T04:36:55.769Z,95.80
2022-09-02T04:39:02.488Z,95.30
2022-09-02T04:41:19.810Z,95.50
2022-09-02T04:43:24.768Z,95.00
2022-09-02T04:45:32.127Z,95.40
2022-09-02T04:47:39.071Z,95.00
2022-09-02T04:49:45.799Z,95.20
2022-09-02T04:51:55.075Z,95.00
2022-09-02T04:54:03.448Z,95.00
2022-09-02T04:56:12.321Z,94.60
2022-09-02T04:58:18.995Z,94.80
2022-09-02T05:00:28.344Z,94.40
2022-09-02T05:02:33.720Z,94.40
2022-09-02T05:04:40.564Z,94.20
2022-09-02T05:06:56.898Z,94.00
2022-09-02T05:09:03.026Z,93.80
2022-09-02T05:11:14.522Z,93.90
2022-09-02T05:13:23.365Z,93.00
2022-09-02T05:15:30.233Z,93.20
2022-09-02T05:17:43.795Z,93.20
2022-09-02T05:19:57.539Z,93.00
2022-09-02T05:22:06.094Z,93.10
2022-09-02T05:24:20.328Z,93.10
2022-09-02T05:26:29.529Z,92.70
2022-09-02T05:28:35.783Z,92.60
2022-09-02T05:30:42.637Z,92.50
2022-09-02T05:32:50.590Z,92.00
2022-09-02T05:34:57.636Z,92.20
2022-09-02T05:37:20.425Z,91.80
2022-09-02T05:39:31.381Z,91.90
2022-09-02T05:41:36.932Z,92.40
2022-09-02T05:43:45.750Z,91.10
2022-09-02T05:45:52.956Z,92.20
2022-09-02T05:48:00.504Z,92.30
2022-09-02T05:50:07.804Z,92.70
2022-09-02T05:52:17.031Z,92.30
2022-09-02T05:54:31.147Z,91.90
2022-09-02T05:56:44.875Z,92.20
2022-09-02T05:58:54.300Z,92.50
2022-09-02T06:00:58.780Z,92.40
2022-09-02T06:03:05.587Z,92.40
2022-09-02T06:05:14.983Z,92.20
2022-09-02T06:07:25.683Z,92.40
2022-09-02T06:09:33.403Z,92.30
2022-09-02T06:11:46.425Z,92.30
2022-09-02T06:13:56.781Z,92.30
2022-09-02T06:16:03.772Z,92.40
2022-09-02T06:18:13.434Z,92.50
2022-09-02T06:20:22.580Z,92.70
2022-09-02T06:22:29.653Z,92.50
2022-09-02T06:24:43.950Z,92.30
2022-09-02T06:26:59.052Z,92.30
2022-09-02T06:29:14.789Z,92.20
2022-09-02T06:31:24.690Z,92.00
2022-09-02T06:33:30.922Z,92.10
2022-09-02T06:35:41.727Z,92.30
2022-09-02T06:37:48.638Z,92.40
2022-09-02T06:39:53.432Z,92.60
2022-09-02T06:42:03.884Z,92.60
2022-09-02T06:44:22.707Z,92.30
2022-09-02T06:46:29.974Z,92.40
2022-09-02T06:48:38.830Z,92.30
2022-09-02T06:50:49.310Z,92.00
2022-09-02T06:52:53.792Z,91.90
2022-09-02T06:55:01.088Z,91.80
2022-09-02T06:57:08.278Z,91.60
2022-09-02T06:59:17.420Z,91.50
2022-09-02T07:01:33.252Z,91.50
2022-09-02T07:03:52.073Z,91.80
2022-09-02T07:06:16.467Z,92.00
2022-09-02T07:08:24.716Z,92.10
2022-09-02T07:10:32.213Z,92.50
2022-09-02T07:12:38.118Z,92.30
2022-09-02T07:14:47.718Z,92.00
2022-09-02T07:17:03.219Z,91.80
2022-09-02T07:19:14.124Z,91.20
2022-09-02T07:21:22.393Z,91.60
2022-09-02T07:23:28.965Z,91.70
2022-09-02T07:25:34.229Z,91.40
2022-09-02T07:27:40.662Z,91.00
2022-09-02T07:29:50.180Z,91.00
2022-09-02T07:32:07.644Z,91.00
2022-09-02T07:34:15.632Z,91.00
2022-09-02T07:36:23.866Z,90.90
2022-09-02T07:38:28.785Z,90.20
2022-09-02T07:40:37.346Z,90.90
2022-09-02T07:42:44.290Z,91.00
2022-09-02T07:44:49.626Z,91.20
2022-09-02T07:46:56.874Z,90.90
2022-09-02T07:49:05.251Z,91.10
2022-09-02T07:51:14.580Z,90.70
2022-09-02T07:53:21.767Z,90.70
2022-09-02T07:55:29.196Z,90.80
2022-09-02T07:57:33.616Z,90.60
2022-09-02T07:59:41.019Z,90.70
2022-09-02T08:01:47.513Z,90.50
2022-09-02T08:03:53.421Z,90.60
2022-09-02T08:06:04.353Z,90.90
2022-09-02T08:08:11.431Z,90.90
2022-09-02T08:10:16.779Z,91.20
2022-09-02T08:12:26.279Z,91.20
2022-09-02T08:14:32.960Z,91.20
2022-09-02T08:16:38.554Z,91.10
2022-09-02T08:18:46.415Z,90.80
2022-09-02T08:20:53.058Z,91.00
2022-09-02T08:23:10.798Z,90.50
2022-09-02T08:25:19.564Z,90.60
2022-09-02T08:27:24.047Z,91.30
2022-09-02T08:29:28.731Z,91.20
2022-09-02T08:31:39.210Z,91.30
2022-09-02T08:34:02.961Z,91.00
2022-09-02T08:36:16.338Z,90.90
2022-09-02T08:38:24.715Z,90.90
2022-09-02T08:40:49.611Z,90.80
2022-09-02T08:42:58.605Z,90.50
2022-09-02T08:45:21.141Z,90.60
2022-09-02T08:47:28.858Z,90.50
2022-09-02T08:49:36.985Z,90.20
2022-09-02T08:51:52.772Z,90.30
2022-09-02T08:54:13.542Z,90.00
2022-09-02T08:56:18.999Z,89.60
2022-09-02T08:58:29.874Z,90.10
2022-09-02T09:00:59.031Z,90.00
2022-09-02T09:03:24.741Z,90.00
2022-09-02T09:05:59.878Z,89.50
2022-09-02T09:08:37.199Z,89.80
2022-09-02T09:11:06.102Z,89.30
2022-09-02T09:13:40.749Z,88.60
2022-09-02T09:16:11.947Z,89.40
2022-09-02T09:18:18.925Z,89.20
2022-09-02T09:20:27.587Z,89.30
2022-09-02T09:22:41.435Z,90.00
2022-09-02T09:24:50.354Z,90.00
2022-09-02T09:26:56.100Z,90.00
2022-09-02T09:29:04.566Z,90.20
2022-09-02T09:31:19.368Z,90.40
2022-09-02T09:33:31.903Z,90.50
2022-09-02T09:35:50.946Z,90.40
2022-09-02T09:38:01.168Z,90.40
2022-09-02T09:40:28.588Z,90.60
2022-09-02T09:42:36.750Z,90.50
2022-09-02T09:44:50.707Z,90.40
2022-09-02T09:47:18.014Z,90.60
2022-09-02T09:49:30.500Z,90.60
2022-09-02T09:51:43.187Z,90.20
2022-09-02T09:53:54.600Z,90.30
2022-09-02T09:56:07.865Z,90.50
2022-09-02T09:58:12.415Z,90.20
2022-09-02T10:00:33.163Z,90.30
2022-09-02T10:02:48.691Z,90.20
2022-09-02T10:05:11.026Z,90.30
2022-09-02T10:07:15.490Z,90.70
2022-09-02T10:09:49.616Z,90.90
2022-09-02T10:12:09.711Z,90.80
2022-09-02T10:14:14.959Z,91.10
2022-09-02T10:16:51.969Z,91.20
2022-09-02T10:18:57.871Z,91.40
2022-09-02T10:21:29.003Z,91.30
2022-09-02T10:23:56.236Z,91.30
2022-09-02T10:26:27.151Z,91.80
2022-09-02T10:29:09.767Z,91.80
2022-09-02T10:31:53.542Z,91.80
2022-09-02T10:34:30.204Z,91.70
2022-09-02T10:37:06.389Z,92.10
2022-09-02T10:39:34.234Z,92.20
2022-09-02T10:41:49.368Z,92.30
2022-09-02T10:44:25.728Z,92.40
2022-09-02T10:46:34.156Z,92.60
2022-09-02T10:49:11.817Z,92.80
2022-09-02T10:51:49.877Z,93.00
2022-09-02T10:54:11.983Z,93.10
2022-09-02T10:56:22.559Z,92.90
2022-09-02T10:58:44.731Z,93.20
2022-09-02T11:00:53.458Z,93.60
2022-09-02T11:03:31.172Z,94.00
2022-09-02T11:05:57.262Z,94.00
2022-09-02T11:08:11.488Z,94.00
2022-09-02T11:10:41.847Z,94.00
2022-09-02T11:13:39.529Z,94.20
2022-09-02T11:16:05.897Z,94.20
2022-09-02T11:18:48.786Z,94.40
2022-09-02T11:21:18.173Z,94.60
2022-09-02T11:23:41.881Z,94.60
2022-09-02T11:26:08.666Z,94.80
2022-09-02T11:28:34.726Z,94.50
2022-09-02T11:31:12.747Z,94.20
2022-09-02T11:33:37.980Z,94.80
2022-09-02T11:35:45.572Z,94.90
2022-09-02T11:38:04.716Z,94.70
2022-09-02T11:40:39.091Z,95.20
2022-09-02T11:43:03.894Z,95.10
2022-09-02T11:45:43.559Z,95.80
2022-09-02T11:48:02.644Z,96.20
2022-09-02T11:50:46.046Z,96.30
2022-09-02T11:53:14.002Z,95.30
2022-09-02T11:55:24.019Z,94.40
2022-09-02T11:57:32.820Z,94.20
2022-09-02T12:00:10.025Z,93.30
2022-09-02T12:02:43.284Z,92.70
2022-09-02T12:05:00.429Z,92.80
2022-09-02T12:07:26.830Z,93.00
2022-09-02T12:09:53.697Z,92.30
2022-09-02T12:12:01.181Z,91.30
2022-09-02T12:14:08.001Z,90.70
2022-09-02T12:16:39.555Z,90.80
2022-09-02T12:19:10.020Z,90.40
2022-09-02T12:21:23.337Z,90.60
2022-09-02T12:23:46.842Z,91.00
2022-09-02T12:25:57.885Z,90.40
2022-09-02T12:28:30.020Z,90.60
2022-09-02T12:31:09.889Z,88.90
2022-09-02T12:33:31.571Z,87.50
2022-09-02T12:35:58.524Z,87.00
2022-09-02T12:38:25.189Z,85.70
2022-09-02T12:40:34.118Z,89.70
2022-09-02T12:42:39.073Z,90.00
2022-09-02T12:45:07.877Z,89.60
2022-09-02T12:47:52.401Z,89.90
2022-09-02T12:50:31.385Z,90.30
2022-09-02T12:52:49.718Z,90.20
2022-09-02T12:54:54.244Z,90.50
2022-09-02T12:57:03.051Z,91.40
2022-09-02T12:59:07.850Z,91.60
2022-09-02T13:01:41.367Z,91.90
2022-09-02T13:04:05.958Z,92.10
2022-09-02T13:06:49.698Z,91.90
2022-09-02T13:09:33.456Z,91.60
2022-09-02T13:12:10.904Z,91.70
2022-09-02T13:14:45.171Z,91.30
2022-09-02T13:17:37.327Z,91.50
2022-09-02T13:20:09.142Z,91.40
2022-09-02T13:22:50.184Z,91.50
2022-09-02T13:25:22.182Z,91.80
2022-09-02T13:27:51.102Z,92.20
2022-09-02T13:30:16.695Z,92.30
2022-09-02T13:32:29.959Z,92.30
2022-09-02T13:34:47.815Z,92.30
2022-09-02T13:36:54.432Z,92.40
2022-09-02T13:39:11.878Z,92.60
2022-09-02T13:41:30.284Z,92.70
2022-09-02T13:43:36.679Z,93.30
2022-09-02T13:45:43.358Z,93.40
2022-09-02T13:47:53.139Z,93.50
2022-09-02T13:50:01.452Z,93.80
2022-09-02T13:52:09.056Z,93.90
2022-09-02T13:54:29.460Z,94.30
2022-09-02T13:56:36.922Z,94.60
2022-09-02T13:58:57.035Z,94.90
2022-09-02T14:01:30.699Z,95.20
2022-09-02T14:03:40.434Z,95.40
2022-09-02T14:05:49.517Z,95.40
2022-09-02T14:07:56.814Z,95.50
2022-09-02T14:10:03.892Z,95.40
2022-09-02T14:12:11.493Z,95.60
2022-09-02T14:14:21.103Z,95.60
2022-09-02T14:16:37.166Z,95.60
2022-09-02T14:18:42.798Z,95.70
2022-09-02T14:21:10.839Z,95.90
2022-09-02T14:23:18.078Z,96.30
2022-09-02T14:25:27.386Z,96.20
2022-09-02T14:27:31.964Z,96.30
2022-09-02T14:29:38.306Z,96.40
2022-09-02T14:31:45.051Z,96.50
2022-09-02T14:33:49.896Z,96.60
2022-09-02T14:36:02.036Z,96.70
2022-09-02T14:38:08.540Z,96.80
2022-09-02T14:40:13.105Z,97.10
2022-09-02T14:42:19.459Z,97.30
2022-09-02T14:44:45.034Z,97.30
2022-09-02T14:46:58.149Z,97.40
2022-09-02T14:49:12.546Z,97.50
2022-09-02T14:51:19.866Z,97.60
2022-09-02T14:53:24.753Z,97.70
2022-09-02T14:55:53.457Z,97.90
2022-09-02T14:58:05.875Z,98.40
2022-09-02T15:00:13.010Z,98.60
2022-09-02T15:02:33.297Z,98.70
2022-09-02T15:04:38.317Z,98.80
2022-09-02T15:06:43.885Z,99.00
2022-09-02T15:08:51.507Z,99.10
2022-09-02T15:10:58.469Z,99.20
2022-09-02T15:13:03.149Z,99.20
2022-09-02T15:15:15.602Z,99.20
2022-09-02T15:17:31.516Z,99.30
2022-09-02T15:19:36.275Z,99.50
2022-09-02T15:21:41.488Z,99.50
2022-09-02T15:23:51.188Z,99.60
2022-09-02T15:25:56.060Z,99.60
2022-09-02T15:28:03.218Z,99.80
2022-09-02T15:30:10.354Z,99.90
2022-09-02T15:32:14.918Z,99.90
2022-09-02T15:34:24.398Z,99.90
2022-09-02T15:36:31.167Z,99.90
2022-09-02T15:38:36.832Z,99.90
2022-09-02T15:40:43.624Z,99.90
2022-09-02T15:42:50.243Z,99.90
2022-09-02T15:44:55.075Z,99.90
2022-09-02T15:47:04.162Z,99.90
2022-09-02T15:49:12.561Z,99.90
2022-09-02T15:51:18.099Z,99.90
2022-09-02T15:53:24.701Z,99.90
2022-09-02T15:55:31.074Z,99.90
2022-09-02T15:57:35.914Z,99.90
2022-09-02T15:59:40.293Z,99.90
2022-09-02T16:01:47.112Z,99.90
2022-09-02T16:03:51.824Z,99.90
2022-09-02T16:06:05.654Z,99.90
2022-09-02T16:08:12.152Z,99.90
2022-09-02T16:10:17.012Z,99.90
2022-09-02T16:12:23.260Z,99.90
2022-09-02T16:14:31.670Z,99.90
2022-09-02T16:16:39.183Z,99.90
2022-09-02T16:18:45.741Z,99.90
2022-09-02T16:20:50.109Z,99.90
2022-09-02T16:22:55.577Z,99.90
2022-09-02T16:25:02.460Z,99.90
2022-09-02T16:27:08.895Z,99.90
2022-09-02T16:29:14.981Z,99.90
2022-09-02T16:31:21.030Z,99.90
2022-09-02T16:33:27.742Z,99.90
2022-09-02T16:35:32.357Z,99.90
2022-09-02T16:37:36.974Z,99.90
2022-09-02T16:39:44.024Z,99.90
2022-09-02T16:41:53.329Z,99.90
2022-09-02T16:44:04.877Z,99.90
2022-09-02T16:46:12.150Z,99.90
2022-09-02T16:48:25.678Z,99.90
2022-09-02T16:50:32.597Z,99.90
2022-09-02T16:52:38.875Z,99.90
2022-09-02T16:54:45.076Z,99.90
2022-09-02T16:56:51.801Z,99.90
2022-09-02T16:58:58.398Z,99.90
2022-09-02T17:01:06.177Z,99.90
2022-09-02T17:03:14.087Z,99.90
2022-09-02T17:05:20.765Z,99.90
2022-09-02T17:07:25.554Z,99.90
2022-09-02T17:09:32.322Z,99.90
2022-09-02T17:11:40.981Z,99.90
2022-09-02T17:13:47.525Z,99.90
2022-09-02T17:15:55.178Z,99.90
2022-09-02T17:18:01.679Z,99.90
2022-09-02T17:20:06.647Z,99.90
2022-09-02T17:22:14.878Z,99.90
2022-09-02T17:24:34.793Z,99.90
2022-09-02T17:26:41.401Z,99.90
2022-09-02T17:28:48.539Z,99.90
2022-09-02T17:30:54.980Z,99.90
2022-09-02T17:33:00.589Z,99.90
2022-09-02T17:35:08.715Z,99.90
2022-09-02T17:37:15.416Z,99.90
2022-09-02T17:39:20.473Z,99.90
2022-09-02T17:41:45.001Z,99.90
2022-09-02T17:43:51.488Z,99.90
2022-09-02T17:46:09.746Z,99.90
2022-09-02T17:48:35.711Z,99.90
2022-09-02T17:50:44.820Z,99.90
2022-09-02T17:52:49.593Z,99.90
2022-09-02T17:54:56.390Z,99.90
2022-09-02T17:57:27.257Z,99.90
2022-09-02T17:59:54.309Z,99.90
2022-09-02T18:02:18.018Z,99.90
2022-09-02T18:04:43.285Z,99.90
2022-09-02T18:06:49.044Z,99.90
2022-09-02T18:09:03.289Z,99.90
2022-09-02T18:11:11.007Z,99.90
2022-09-02T18:13:16.822Z,99.90
2022-09-02T18:15:23.233Z,99.90
2022-09-02T18:17:39.863Z,99.90
2022-09-02T18:19:58.311Z,99.90
2022-09-02T18:22:29.294Z,99.90
2022-09-02T18:25:11.707Z,99.90
2022-09-02T18:27:25.255Z,99.90
2022-09-02T18:29:49.375Z,99.90
2022-09-02T18:32:14.658Z,99.90
2022-09-02T18:34:33.722Z,99.90
2022-09-02T18:36:53.411Z,99.90
2022-09-02T18:39:25.347Z,99.90
2022-09-02T18:42:01.742Z,99.90
2022-09-02T18:44:20.478Z,99.90
2022-09-02T18:46:28.351Z,99.90
2022-09-02T18:48:39.184Z,99.90
2022-09-02T18:51:26.663Z,99.90
2022-09-02T18:53:35.655Z,99.90
2022-09-02T18:55:42.322Z,99.90
2022-09-02T18:57:59.695Z,99.90
2022-09-02T19:00:10.675Z,99.90
2022-09-02T19:02:27.551Z,99.90
2022-09-02T19:04:33.213Z,99.90
2022-09-02T19:06:40.232Z,99.90
2022-09-02T19:08:46.992Z,99.90
2022-09-02T19:10:55.185Z,99.90
2022-09-02T19:13:01.850Z,99.90
2022-09-02T19:15:13.145Z,99.90
2022-09-02T19:17:18.328Z,99.90
2022-09-02T19:19:25.217Z,99.90
2022-09-02T19:21:37.785Z,99.90
2022-09-02T19:23:42.374Z,99.90
2022-09-02T19:25:49.156Z,99.90
2022-09-02T19:27:55.840Z,99.90
2022-09-02T19:30:13.617Z,99.90
2022-09-02T19:32:21.051Z,99.90
2022-09-02T19:34:37.502Z,99.90
2022-09-02T19:36:43.984Z,99.90
2022-09-02T19:38:49.838Z,99.90
2022-09-02T19:40:56.482Z,99.90
2022-09-02T19:43:06.241Z,99.90
2022-09-02T19:45:16.137Z,99.90
2022-09-02T19:49:49.214Z,99.90
2022-09-02T19:51:57.979Z,99.90
2022-09-02T19:54:04.982Z,99.90
2022-09-02T19:56:09.729Z,99.90
2022-09-02T19:58:21.547Z,99.90
2022-09-02T20:00:29.903Z,99.90
2022-09-02T20:02:35.997Z,99.90
2022-09-02T20:04:44.286Z,99.90
2022-09-02T20:06:49.051Z,99.90
2022-09-02T20:08:54.252Z,99.90
2022-09-02T20:11:04.816Z,99.90
2022-09-02T20:13:14.755Z,99.90
2022-09-02T20:15:29.401Z,99.90
2022-09-02T20:17:52.943Z,99.90
2022-09-02T20:20:03.734Z,99.90
2022-09-02T20:22:19.268Z,99.90
2022-09-02T20:24:33.816Z,99.90
2022-09-02T20:27:08.954Z,99.90
2022-09-02T20:29:50.973Z,99.90
2022-09-02T20:32:15.484Z,99.90
2022-09-02T20:34:48.701Z,99.90
2022-09-02T20:37:22.573Z,99.90
2022-09-02T20:40:07.707Z,99.90
2022-09-02T20:42:43.854Z,99.90
2022-09-02T20:45:13.800Z,99.90
2022-09-02T20:48:04.423Z,99.90
2022-09-02T20:50:34.633Z,99.90
2022-09-02T20:53:07.391Z,99.90
2022-09-02T20:55:32.975Z,99.90
2022-09-02T20:58:19.759Z,99.90
2022-09-02T21:01:17.332Z,99.90
2022-09-02T21:03:29.142Z,99.90
2022-09-02T21:05:39.673Z,99.90
2022-09-02T21:07:50.570Z,99.90
2022-09-02T21:10:21.070Z,99.90
2022-09-02T21:12:51.390Z,99.90
2022-09-02T21:15:18.772Z,99.90
2022-09-02T21:17:38.299Z,99.90
2022-09-02T21:20:07.835Z,99.90
2022-09-02T21:22:32.085Z,99.90
2022-09-02T21:24:50.648Z,99.90
2022-09-02T21:27:12.750Z,99.90
2022-09-02T21:29:36.282Z,99.90
2022-09-02T21:32:02.068Z,99.90
2022-09-02T21:34:09.739Z,99.90
2022-09-02T21:36:16.030Z,99.90
2022-09-02T21:38:54.005Z,99.90
2022-09-02T21:41:23.072Z,99.90
2022-09-02T21:44:14.088Z,99.90
2022-09-02T21:47:02.419Z,99.90
2022-09-02T21:49:49.314Z,99.90
2022-09-02T21:52:08.537Z,99.90
2022-09-02T21:54:56.435Z,99.90
2022-09-02T21:57:34.605Z,99.90
2022-09-02T22:00:12.601Z,99.90
2022-09-02T22:03:05.262Z,99.90
2022-09-02T22:05:52.983Z,99.90
2022-09-02T22:08:22.307Z,99.90
2022-09-02T22:10:57.863Z,99.90
2022-09-02T22:13:05.943Z,99.90
2022-09-02T22:15:29.649Z,99.90
2022-09-02T22:17:58.678Z,99.90
2022-09-02T22:20:10.234Z,99.90
2022-09-02T22:22:25.546Z,99.90
2022-09-02T22:24:34.504Z,99.90
2022-09-02T22:26:57.207Z,99.90
2022-09-02T22:29:05.092Z,99.90
2022-09-02T22:31:19.001Z,99.90
2022-09-02T22:33:26.132Z,99.90
2022-09-02T22:35:46.203Z,99.90
2022-09-02T22:38:06.645Z,99.90
2022-09-02T22:40:16.349Z,99.90
2022-09-02T22:42:35.743Z,99.90
2022-09-02T22:45:14.028Z,99.90
2022-09-02T22:47:31.267Z,99.90
2022-09-02T22:49:55.805Z,99.90
2022-09-02T22:52:35.050Z,99.90
2022-09-02T22:54:44.891Z,99.90
2022-09-02T22:57:30.824Z,99.90
2022-09-02T23:00:13.910Z,99.90
2022-09-02T23:02:28.636Z,99.90
2022-09-02T23:05:03.854Z,99.90
2022-09-02T23:07:17.850Z,99.90
2022-09-02T23:09:29.599Z,99.90
2022-09-02T23:11:58.215Z,99.90
2022-09-02T23:14:20.974Z,99.90
2022-09-02T23:16:40.946Z,99.90
2022-09-02T23:19:12.927Z,99.90
2022-09-02T23:21:50.032Z,99.90
2022-09-02T23:24:10.351Z,99.90
2022-09-02T23:26:46.764Z,99.90
2022-09-02T23:29:26.452Z,99.90
2022-09-02T23:31:56.826Z,99.90
2022-09-02T23:34:33.116Z,99.90
2022-09-02T23:36:58.693Z,99.90
2022-09-02T23:39:35.963Z,99.90
2022-09-02T23:41:40.922Z,99.90
2022-09-02T23:43:47.491Z,99.90
2022-09-02T23:45:54.171Z,99.90
2022-09-02T23:48:29.715Z,99.90
2022-09-02T23:51:01.026Z,99.90
2022-09-02T23:53:11.743Z,99.90
2022-09-02T23:55:44.688Z,99.90
2022-09-02T23:58:23.138Z,99.90
